createdAt,value
2022-08-10T00:00:51.717Z,1.92
2022-08-10T00:03:19.062Z,1.50
2022-08-10T00:05:52.650Z,1.65
2022-08-10T00:08:23.762Z,1.63
2022-08-10T00:10:55.668Z,1.60
2022-08-10T00:13:23.678Z,1.63
2022-08-10T00:15:54.125Z,1.85
2022-08-10T00:18:34.985Z,1.80
2022-08-10T00:21:07.210Z,1.80
2022-08-10T00:23:35.274Z,1.67
2022-08-10T00:26:02.905Z,1.50
2022-08-10T00:28:30.378Z,1.60
2022-08-10T00:30:58.123Z,1.52
2022-08-10T00:33:25.461Z,1.40
2022-08-10T00:35:52.831Z,2.00
2022-08-10T00:38:20.205Z,1.95
2022-08-10T00:40:47.587Z,1.60
2022-08-10T00:43:15.049Z,1.73
2022-08-10T00:45:58.859Z,1.60
2022-08-10T00:48:29.772Z,2.05
2022-08-10T00:50:58.391Z,1.55
2022-08-10T00:53:26.346Z,1.70
2022-08-10T00:57:14.130Z,2.22
2022-08-10T00:58:41.855Z,1.60
2022-08-10T01:01:11.071Z,1.83
2022-08-10T01:04:36.636Z,1.63
2022-08-10T01:07:02.390Z,1.60
2022-08-10T01:09:35.687Z,1.92
2022-08-10T01:12:40.421Z,1.90
2022-08-10T01:15:27.370Z,1.60
2022-08-10T01:18:13.470Z,1.77
2022-08-10T01:20:40.922Z,2.10
2022-08-10T01:23:08.287Z,1.88
2022-08-10T01:25:35.578Z,1.80
2022-08-10T01:28:29.397Z,1.90
2022-08-10T01:31:00.390Z,1.83
2022-08-10T01:33:57.973Z,2.07
2022-08-10T01:36:20.192Z,1.73
2022-08-10T01:39:00.997Z,1.70
2022-08-10T01:41:46.354Z,2.10
2022-08-10T01:44:20.044Z,1.80
2022-08-10T01:46:51.350Z,1.90
2022-08-10T01:49:25.778Z,1.93
2022-08-10T01:52:00.445Z,2.00
2022-08-10T01:54:28.274Z,1.70
2022-08-10T01:56:57.811Z,2.07
2022-08-10T01:59:30.209Z,2.40
2022-08-10T02:02:00.874Z,2.10
2022-08-10T02:04:29.544Z,2.27
2022-08-10T02:06:57.031Z,2.30
2022-08-10T02:09:27.201Z,2.10
2022-08-10T02:12:07.102Z,2.00
2022-08-10T02:14:37.429Z,2.53
2022-08-10T02:17:07.326Z,2.00
2022-08-10T02:19:36.563Z,2.00
2022-08-10T02:22:35.797Z,2.57
2022-08-10T02:24:53.410Z,2.37
2022-08-10T02:27:23.503Z,2.30
2022-08-10T02:29:51.536Z,2.10
2022-08-10T02:32:35.990Z,2.20
2022-08-10T02:35:06.781Z,2.17
2022-08-10T02:37:35.309Z,2.37
2022-08-10T02:40:02.623Z,2.37
2022-08-10T02:45:21.100Z,2.20
2022-08-10T02:45:31.731Z,2.40
2022-08-10T02:48:11.094Z,2.07
2022-08-10T02:50:40.990Z,2.13
2022-08-10T02:53:55.447Z,2.20
2022-08-10T02:56:21.435Z,2.50
2022-08-10T02:58:51.876Z,2.00
2022-08-10T03:01:21.607Z,2.00
2022-08-10T03:03:51.042Z,2.40
2022-08-10T03:06:22.411Z,2.53
2022-08-10T03:08:49.996Z,2.20
2022-08-10T03:12:34.892Z,2.07
2022-08-10T03:14:09.491Z,2.07
2022-08-10T03:16:37.660Z,2.57
2022-08-10T03:19:06.599Z,2.20
2022-08-10T03:21:54.551Z,2.27
2022-08-10T03:24:30.527Z,2.40
2022-08-10T03:27:01.313Z,2.40
2022-08-10T03:29:29.295Z,2.40
2022-08-10T03:31:57.450Z,2.50
2022-08-10T03:34:33.475Z,2.60
2022-08-10T03:37:01.356Z,2.20
2022-08-10T03:39:28.913Z,2.50
2022-08-10T03:41:58.611Z,2.40
2022-08-10T03:44:26.782Z,2.30
2022-08-10T03:46:55.069Z,2.30
2022-08-10T03:49:22.978Z,2.43
2022-08-10T03:51:51.522Z,2.30
2022-08-10T03:54:19.441Z,2.37
2022-08-10T03:56:47.009Z,2.30
2022-08-10T03:59:15.544Z,2.90
2022-08-10T04:02:44.142Z,2.23
2022-08-10T04:04:31.042Z,2.17
2022-08-10T04:06:59.357Z,2.67
2022-08-10T04:09:54.191Z,2.47
2022-08-10T04:12:18.272Z,2.40
2022-08-10T04:14:50.474Z,2.40
2022-08-10T04:18:03.692Z,2.63
2022-08-10T04:20:07.336Z,2.10
2022-08-10T04:22:35.392Z,2.37
2022-08-10T04:25:04.825Z,2.33
2022-08-10T04:27:32.695Z,2.37
2022-08-10T04:30:00.199Z,2.40
2022-08-10T04:32:31.591Z,2.57
2022-08-10T04:34:59.747Z,2.13
2022-08-10T04:37:28.131Z,2.40
2022-08-10T04:39:55.981Z,2.30
2022-08-10T04:42:23.353Z,2.30
2022-08-10T04:44:50.958Z,2.07
2022-08-10T04:47:51.102Z,2.00
2022-08-10T04:50:08.959Z,2.23
2022-08-10T04:52:37.366Z,2.23
2022-08-10T04:55:04.900Z,2.80
2022-08-10T04:57:32.205Z,2.03
2022-08-10T04:59:59.484Z,2.30
2022-08-10T05:02:31.505Z,2.40
2022-08-10T05:05:00.213Z,2.30
2022-08-10T05:07:27.515Z,2.10
2022-08-10T05:10:04.954Z,2.30
2022-08-10T05:12:38.746Z,2.20
2022-08-10T05:15:10.735Z,2.07
2022-08-10T05:17:38.866Z,2.13
2022-08-10T05:20:07.979Z,2.10
2022-08-10T05:22:37.054Z,2.10
2022-08-10T05:25:05.097Z,2.40
2022-08-10T05:27:32.483Z,2.13
2022-08-10T05:30:00.981Z,2.00
2022-08-10T05:32:29.209Z,2.30
2022-08-10T05:34:56.544Z,2.37
2022-08-10T05:38:08.938Z,2.20
2022-08-10T05:40:12.527Z,2.00
2022-08-10T05:42:40.266Z,2.15
2022-08-10T05:45:10.367Z,1.67
2022-08-10T05:48:41.561Z,1.65
2022-08-10T05:50:27.425Z,1.70
2022-08-10T05:55:23.348Z,1.58
2022-08-10T05:57:50.640Z,1.30
2022-08-10T06:00:36.637Z,1.48
2022-08-10T06:03:08.649Z,1.17
2022-08-10T06:05:40.276Z,1.33
2022-08-10T06:08:14.398Z,1.60
2022-08-10T06:12:16.700Z,1.55
2022-08-10T06:14:13.388Z,1.50
2022-08-10T06:16:39.139Z,1.73
2022-08-10T06:19:07.108Z,1.50
2022-08-10T06:21:35.199Z,1.70
2022-08-10T06:24:03.129Z,1.70
2022-08-10T06:26:30.427Z,2.00
2022-08-10T06:29:02.693Z,1.63
2022-08-10T06:31:47.122Z,1.60
2022-08-10T06:34:18.411Z,1.83
2022-08-10T06:36:47.101Z,1.90
2022-08-10T06:39:32.457Z,1.90
2022-08-10T06:42:21.391Z,2.20
2022-08-10T06:44:57.978Z,1.63
2022-08-10T06:47:28.215Z,1.70
2022-08-10T06:49:59.602Z,2.08
2022-08-10T06:52:28.201Z,1.80
2022-08-10T06:54:57.262Z,1.60
2022-08-10T06:57:26.542Z,2.00
2022-08-10T06:59:55.165Z,1.83
2022-08-10T07:02:31.319Z,2.08
2022-08-10T07:04:59.642Z,1.88
2022-08-10T07:07:29.235Z,2.00
2022-08-10T07:09:58.294Z,1.73
2022-08-10T07:12:26.003Z,1.75
2022-08-10T07:14:54.638Z,1.98
2022-08-10T07:17:23.222Z,1.85
2022-08-10T07:19:52.843Z,1.80
2022-08-10T07:23:26.939Z,1.85
2022-08-10T07:25:10.319Z,1.80
2022-08-10T07:28:00.108Z,1.83
2022-08-10T07:30:30.600Z,1.73
2022-08-10T07:32:59.347Z,1.80
2022-08-10T07:35:27.890Z,1.70
2022-08-10T07:37:57.465Z,1.60
2022-08-10T07:40:24.783Z,1.75
2022-08-10T07:42:54.591Z,1.90
2022-08-10T07:45:21.968Z,1.60
2022-08-10T07:48:10.671Z,1.50
2022-08-10T07:50:39.848Z,1.75
2022-08-10T07:53:09.442Z,1.48
2022-08-10T07:56:03.589Z,1.70
2022-08-10T07:58:28.245Z,1.50
2022-08-10T08:00:55.730Z,1.65
2022-08-10T08:03:28.750Z,1.45
2022-08-10T08:06:05.224Z,1.60
2022-08-10T08:08:39.840Z,1.58
2022-08-10T08:11:07.507Z,1.55
2022-08-10T08:13:35.046Z,1.20
2022-08-10T08:16:17.291Z,1.60
2022-08-10T08:19:03.728Z,1.70
2022-08-10T08:24:04.876Z,1.30
2022-08-10T08:24:32.572Z,1.65
2022-08-10T08:27:02.681Z,1.23
2022-08-10T08:29:32.464Z,1.65
2022-08-10T08:32:01.607Z,1.40
2022-08-10T08:34:31.367Z,1.50
2022-08-10T08:36:59.960Z,1.52
2022-08-10T08:39:27.615Z,1.40
2022-08-10T08:42:01.379Z,1.60
2022-08-10T08:44:34.868Z,1.60
2022-08-10T08:47:18.833Z,1.60
2022-08-10T08:50:09.437Z,1.45
2022-08-10T08:52:40.384Z,1.35
2022-08-10T08:56:04.293Z,1.58
2022-08-10T08:58:33.675Z,1.40
2022-08-10T09:01:20.914Z,1.48
2022-08-10T09:03:55.787Z,1.70
2022-08-10T09:06:37.532Z,1.60
2022-08-10T09:09:04.813Z,1.20
2022-08-10T09:11:51.123Z,1.30
2022-08-10T09:14:25.350Z,1.25
2022-08-10T09:16:59.466Z,1.40
2022-08-10T09:19:36.374Z,1.20
2022-08-10T09:22:26.238Z,1.40
2022-08-10T09:25:14.420Z,1.13
2022-08-10T09:27:49.312Z,1.15
2022-08-10T09:30:19.413Z,1.20
2022-08-10T09:36:22.961Z,1.25
2022-08-10T09:36:28.950Z,1.48
2022-08-10T09:40:05.820Z,1.35
2022-08-10T09:42:14.766Z,1.50
2022-08-10T09:44:57.628Z,1.30
2022-08-10T09:48:00.065Z,1.15
2022-08-10T09:51:16.397Z,1.30
2022-08-10T09:53:43.585Z,1.25
2022-08-10T09:56:21.403Z,1.15
2022-08-10T09:58:51.828Z,1.05
2022-08-10T10:02:03.042Z,1.30
2022-08-10T10:04:40.163Z,0.90
2022-08-10T10:07:09.099Z,1.20
2022-08-10T10:09:59.700Z,1.00
2022-08-10T10:12:27.410Z,1.30
2022-08-10T10:15:24.661Z,1.10
2022-08-10T10:18:05.885Z,1.13
2022-08-10T10:20:42.243Z,1.30
2022-08-10T10:23:21.752Z,1.20
2022-08-10T10:26:00.808Z,1.10
2022-08-10T10:31:37.139Z,1.23
2022-08-10T10:34:22.287Z,1.48
2022-08-10T10:36:51.931Z,1.30
2022-08-10T10:39:24.070Z,1.10
2022-08-10T10:42:23.325Z,1.15
2022-08-10T10:45:05.521Z,1.20
2022-08-10T10:47:46.428Z,1.23
2022-08-10T10:50:17.925Z,1.08
2022-08-10T10:52:48.818Z,1.30
2022-08-10T10:55:29.253Z,1.40
2022-08-10T10:58:10.963Z,1.58
2022-08-10T11:00:42.985Z,1.20
2022-08-10T11:03:16.810Z,1.40
2022-08-10T11:05:47.575Z,1.40
2022-08-10T11:08:19.392Z,1.27
2022-08-10T11:10:57.125Z,1.30
2022-08-10T11:14:25.929Z,1.23
2022-08-10T11:16:22.621Z,1.40
2022-08-10T11:18:59.130Z,1.20
2022-08-10T11:22:02.444Z,1.25
2022-08-10T11:24:47.704Z,1.00
2022-08-10T11:27:39.061Z,1.10
2022-08-10T11:30:07.635Z,1.20
2022-08-10T11:32:43.740Z,1.10
2022-08-10T11:35:31.599Z,1.10
2022-08-10T11:38:29.620Z,1.27
2022-08-10T11:42:06.754Z,1.63
2022-08-10T11:43:55.073Z,1.33
2022-08-10T11:46:31.787Z,1.48
2022-08-10T11:49:31.645Z,1.50
2022-08-10T11:52:01.254Z,1.48
2022-08-10T11:54:36.620Z,1.40
2022-08-10T11:57:04.160Z,1.20
2022-08-10T11:59:58.206Z,1.15
2022-08-10T12:02:28.838Z,1.23
2022-08-10T12:05:23.961Z,1.40
2022-08-10T12:10:07.079Z,1.27
2022-08-10T12:10:58.492Z,1.40
2022-08-10T12:13:26.065Z,1.30
2022-08-10T12:16:05.948Z,1.33
2022-08-10T12:18:52.244Z,1.50
2022-08-10T12:21:24.302Z,1.48
2022-08-10T12:24:03.076Z,1.60
2022-08-10T12:26:40.447Z,1.35
2022-08-10T12:29:07.877Z,1.50
2022-08-10T12:31:35.322Z,1.40
2022-08-10T12:34:06.329Z,1.17
2022-08-10T12:36:43.707Z,1.27
2022-08-10T12:39:19.781Z,1.20
2022-08-10T12:41:50.704Z,1.20
2022-08-10T12:44:42.355Z,1.30
2022-08-10T12:47:28.869Z,1.15
2022-08-10T12:50:23.884Z,1.30
2022-08-10T12:52:56.554Z,1.20
2022-08-10T12:55:25.227Z,1.40
2022-08-10T12:57:54.773Z,1.38
2022-08-10T13:00:28.486Z,1.15
2022-08-10T13:02:56.619Z,1.30
2022-08-10T13:05:26.485Z,1.50
2022-08-10T13:08:26.993Z,1.15
2022-08-10T13:11:01.690Z,1.20
2022-08-10T13:13:34.371Z,1.30
2022-08-10T13:16:02.524Z,1.20
2022-08-10T13:18:35.333Z,1.23
2022-08-10T13:21:20.373Z,1.35
2022-08-10T13:24:03.603Z,1.30
2022-08-10T13:26:35.602Z,1.30
2022-08-10T13:29:12.724Z,1.77
2022-08-10T13:32:03.413Z,1.40
2022-08-10T13:34:43.569Z,1.30
2022-08-10T13:37:15.109Z,1.40
2022-08-10T13:39:58.351Z,1.20
2022-08-10T13:42:32.090Z,1.30
2022-08-10T13:45:05.006Z,1.40
2022-08-10T13:47:47.948Z,1.40
2022-08-10T13:50:20.597Z,1.65
2022-08-10T13:53:01.579Z,1.30
2022-08-10T13:55:53.502Z,1.30
2022-08-10T13:58:17.536Z,1.05
2022-08-10T14:00:45.945Z,1.17
2022-08-10T14:03:15.082Z,1.20
2022-08-10T14:05:45.367Z,1.48
2022-08-10T14:08:14.627Z,1.30
2022-08-10T14:11:01.266Z,1.50
2022-08-10T14:13:32.440Z,1.00
2022-08-10T14:16:00.237Z,0.90
2022-08-10T14:18:27.572Z,1.20
2022-08-10T14:20:58.901Z,1.20
2022-08-10T14:23:27.022Z,1.10
2022-08-10T14:26:03.108Z,1.27
2022-08-10T14:28:39.913Z,1.10
2022-08-10T14:31:08.082Z,1.30
2022-08-10T14:33:36.519Z,1.10
2022-08-10T14:36:20.785Z,1.23
2022-08-10T14:38:53.045Z,1.33
2022-08-10T14:42:02.918Z,1.20
2022-08-10T14:44:13.814Z,1.00
2022-08-10T14:46:46.082Z,1.08
2022-08-10T14:49:25.553Z,1.58
2022-08-10T14:51:58.851Z,1.30
2022-08-10T14:54:29.077Z,1.00
2022-08-10T14:56:57.897Z,1.15
2022-08-10T15:00:08.563Z,1.02
2022-08-10T15:02:40.953Z,1.25
2022-08-10T15:05:09.075Z,1.10
2022-08-10T15:07:37.924Z,1.30
2022-08-10T15:10:09.014Z,1.20
2022-08-10T15:12:39.226Z,1.10
2022-08-10T15:15:16.359Z,1.13
2022-08-10T15:17:52.898Z,1.17
2022-08-10T15:20:22.528Z,1.00
2022-08-10T15:23:30.631Z,1.30
2022-08-10T15:26:11.464Z,1.08
2022-08-10T15:29:24.156Z,1.08
2022-08-10T15:31:58.413Z,1.25
2022-08-10T15:34:45.631Z,1.08
2022-08-10T15:37:40.460Z,1.17
2022-08-10T15:40:26.041Z,1.20
2022-08-10T15:43:05.644Z,1.30
2022-08-10T15:45:55.570Z,1.20
2022-08-10T15:48:23.923Z,1.30
2022-08-10T15:50:57.360Z,1.40
2022-08-10T15:53:33.809Z,1.30
2022-08-10T15:56:40.311Z,1.20
2022-08-10T15:59:12.504Z,1.40
2022-08-10T16:02:14.678Z,1.15
2022-08-10T16:04:34.930Z,1.00
2022-08-10T16:07:06.246Z,1.38
2022-08-10T16:10:23.583Z,1.10
2022-08-10T16:12:59.790Z,1.00
2022-08-10T16:15:29.172Z,0.93
2022-08-10T16:18:00.937Z,1.40
2022-08-10T16:20:53.564Z,1.20
2022-08-10T16:23:41.409Z,1.20
2022-08-10T16:26:14.771Z,1.20
2022-08-10T16:28:48.880Z,1.20
2022-08-10T16:31:21.025Z,1.13
2022-08-10T16:33:53.670Z,1.27
2022-08-10T16:36:23.175Z,1.08
2022-08-10T16:38:51.248Z,1.10
2022-08-10T16:42:05.358Z,1.27
2022-08-10T16:44:11.278Z,1.25
2022-08-10T16:46:41.511Z,1.08
2022-08-10T16:49:09.889Z,1.30
2022-08-10T16:51:39.003Z,1.10
2022-08-10T16:54:08.101Z,1.52
2022-08-10T16:56:48.884Z,1.20
2022-08-10T16:59:21.028Z,1.20
2022-08-10T17:01:54.359Z,1.08
2022-08-10T17:04:23.304Z,0.93
2022-08-10T17:06:58.314Z,1.00
2022-08-10T17:09:27.797Z,1.50
2022-08-10T17:11:56.257Z,1.00
2022-08-10T17:14:28.216Z,1.20
2022-08-10T17:16:57.660Z,1.10
2022-08-10T17:19:26.481Z,1.30
2022-08-10T17:21:57.066Z,1.00
2022-08-10T17:24:29.822Z,1.10
2022-08-10T17:26:58.469Z,1.10
2022-08-10T17:29:58.763Z,1.00
2022-08-10T17:32:24.368Z,1.13
2022-08-10T17:34:53.736Z,1.02
2022-08-10T17:37:24.623Z,1.08
2022-08-10T17:40:13.600Z,1.33
2022-08-10T17:42:42.019Z,1.20
2022-08-10T17:45:14.952Z,1.23
2022-08-10T17:47:52.805Z,1.23
2022-08-10T17:50:24.579Z,1.05
2022-08-10T17:52:53.124Z,1.20
2022-08-10T17:55:21.045Z,1.20
2022-08-10T17:58:02.175Z,1.40
2022-08-10T18:00:30.395Z,1.50
2022-08-10T18:02:58.941Z,1.20
2022-08-10T18:05:27.237Z,1.20
2022-08-10T18:07:55.193Z,1.10
2022-08-10T18:10:23.256Z,1.50
2022-08-10T18:12:53.946Z,1.25
2022-08-10T18:15:23.109Z,1.23
2022-08-10T18:17:59.161Z,1.25
2022-08-10T18:20:31.572Z,1.30
2022-08-10T18:22:59.832Z,1.23
2022-08-10T18:25:46.402Z,1.17
2022-08-10T18:28:18.969Z,1.20
2022-08-10T18:30:48.270Z,1.30
2022-08-10T18:33:17.062Z,1.27
2022-08-10T18:35:48.674Z,1.40
2022-08-10T18:38:17.119Z,1.17
2022-08-10T18:40:51.047Z,1.30
2022-08-10T18:44:07.724Z,1.20
2022-08-10T18:46:08.054Z,1.00
2022-08-10T18:48:39.595Z,1.38
2022-08-10T18:51:07.533Z,1.20
2022-08-10T18:53:41.250Z,1.30
2022-08-10T18:56:27.233Z,1.10
2022-08-10T18:59:12.194Z,1.10
2022-08-10T19:01:45.486Z,1.48
2022-08-10T19:04:19.220Z,1.27
2022-08-10T19:06:59.029Z,1.10
2022-08-10T19:09:49.679Z,1.50
2022-08-10T19:12:30.661Z,1.40
2022-08-10T19:15:25.327Z,1.20
2022-08-10T19:18:07.352Z,1.20
2022-08-10T19:20:51.633Z,1.42
2022-08-10T19:23:38.641Z,1.27
2022-08-10T19:26:45.008Z,1.05
2022-08-10T19:30:05.073Z,1.35
2022-08-10T19:32:18.681Z,1.67
2022-08-10T19:35:10.265Z,1.30
2022-08-10T19:38:00.579Z,1.40
2022-08-10T19:40:47.138Z,1.17
2022-08-10T19:43:59.955Z,1.48
2022-08-10T19:46:28.622Z,1.27
2022-08-10T19:48:56.064Z,1.48
2022-08-10T19:51:46.675Z,1.35
2022-08-10T19:54:20.722Z,1.42
2022-08-10T19:57:09.848Z,1.30
2022-08-10T20:00:15.926Z,1.42
2022-08-10T20:02:27.482Z,1.10
2022-08-10T20:05:02.630Z,1.20
2022-08-10T20:07:37.042Z,1.17
2022-08-10T20:10:25.048Z,1.40
2022-08-10T20:12:58.465Z,1.30
2022-08-10T20:15:30.655Z,1.20
2022-08-10T20:18:13.019Z,1.52
2022-08-10T20:20:50.180Z,1.30
2022-08-10T20:23:19.066Z,1.20
2022-08-10T20:25:52.735Z,1.40
2022-08-10T20:28:24.401Z,1.25
2022-08-10T20:31:07.708Z,1.30
2022-08-10T20:33:42.486Z,1.30
2022-08-10T20:36:18.984Z,1.38
2022-08-10T20:38:58.324Z,1.20
2022-08-10T20:41:46.043Z,1.25
2022-08-10T20:44:16.922Z,1.40
2022-08-10T20:46:47.091Z,1.40
2022-08-10T20:49:23.827Z,1.60
2022-08-10T20:51:59.297Z,1.13
2022-08-10T20:54:51.411Z,1.40
2022-08-10T20:57:56.717Z,1.40
2022-08-10T21:00:22.950Z,1.58
2022-08-10T21:02:53.843Z,1.40
2022-08-10T21:05:59.799Z,1.50
2022-08-10T21:08:45.551Z,1.50
2022-08-10T21:11:28.472Z,1.58
2022-08-10T21:14:02.255Z,1.30
2022-08-10T21:16:35.424Z,1.45
2022-08-10T21:19:22.927Z,1.67
2022-08-10T21:22:09.158Z,1.40
2022-08-10T21:25:00.146Z,1.30
2022-08-10T21:27:33.487Z,1.40
2022-08-10T21:30:11.686Z,1.50
2022-08-10T21:32:48.216Z,1.27
2022-08-10T21:35:37.135Z,1.45
2022-08-10T21:38:09.376Z,1.70
2022-08-10T21:41:18.555Z,1.40
2022-08-10T21:44:04.032Z,1.35
2022-08-10T21:47:09.714Z,1.50
2022-08-10T21:50:17.113Z,1.50
2022-08-10T21:53:16.823Z,1.70
2022-08-10T21:56:11.425Z,1.70
2022-08-10T21:59:07.895Z,1.30
2022-08-10T22:01:56.571Z,1.42
2022-08-10T22:04:45.709Z,1.27
2022-08-10T22:07:53.288Z,1.30
2022-08-10T22:10:42.994Z,1.50
2022-08-10T22:13:34.080Z,1.40
2022-08-10T22:16:23.006Z,1.70
2022-08-10T22:19:14.860Z,1.40
2022-08-10T22:22:27.919Z,1.50
2022-08-10T22:25:17.426Z,1.60
2022-08-10T22:28:04.071Z,1.60
2022-08-10T22:34:23.500Z,1.70
2022-08-10T22:37:15.305Z,1.60
2022-08-10T22:40:13.942Z,1.60
2022-08-10T22:43:11.058Z,1.52
2022-08-10T22:46:03.740Z,1.42
2022-08-10T22:48:50.298Z,1.60
2022-08-10T22:51:22.101Z,1.40
2022-08-10T22:54:10.421Z,1.70
2022-08-10T22:57:00.486Z,1.50
2022-08-10T22:59:29.636Z,1.50
2022-08-10T23:02:07.919Z,1.50
2022-08-10T23:04:44.238Z,1.67
2022-08-10T23:07:18.602Z,1.50
2022-08-10T23:09:47.793Z,1.67
2022-08-10T23:12:17.510Z,1.50
2022-08-10T23:14:59.340Z,1.85
2022-08-10T23:18:00.545Z,1.80
2022-08-10T23:20:30.396Z,1.55
2022-08-10T23:23:04.728Z,1.60
2022-08-10T23:25:40.348Z,1.43
2022-08-10T23:28:38.221Z,1.77
2022-08-10T23:31:11.910Z,1.65
2022-08-10T23:33:39.886Z,1.70
2022-08-10T23:36:33.384Z,1.60
2022-08-10T23:39:26.324Z,1.60
2022-08-10T23:41:46.635Z,1.53
2022-08-10T23:44:20.951Z,1.53
2022-08-10T23:46:49.397Z,1.83
2022-08-10T23:49:17.524Z,1.60
2022-08-10T23:51:56.301Z,1.70
2022-08-10T23:54:24.842Z,1.73
2022-08-10T23:56:53.262Z,1.50
2022-08-10T23:59:22.160Z,2.13
